Time;durP1;ratioP1;P1;durP2;ratioP2;P2;SDS_P1;SDS_P2;PMS_P1;PMS_P2;Temp;Humidity;BMP_temperature;BMP_pressure;BME280_temperature;BME280_humidity;BME280_pressure;Samples;Min_cycle;Max_cycle;Signal;HPM_P1;HPM_P2
2021/12/16 00:06:12;;;;;;;41.85;20.92;;;;;;;7.07;95.29;101962.91;1718902;81;25953;-73
2021/12/16 00:08:22;;;;;;;52.78;20.90;;;;;;;7.07;95.27;101962.91;1719400;81;25829;-71
2021/12/16 00:11:10;;;;;;;35.03;19.12;;;;;;;7.05;95.24;101957.16;1720479;82;98640;-71
2021/12/16 00:32:31;;;;;;;40.25;20.10;;;;;;;7.02;95.06;101963.84;1748215;81;25849;-71
2021/12/16 00:34:48;;;;;;;34.70;18.25;;;;;;;7.01;95.01;101966.08;1747128;81;99021;-71
2021/12/16 00:37:15;;;;;;;40.00;18.80;;;;;;;6.98;94.96;101971.43;1746830;81;27451;-72
2021/12/16 00:39:41;;;;;;;33.55;18.75;;;;;;;6.99;94.95;101974.53;1716178;82;98702;-72
2021/12/16 00:42:32;;;;;;;34.30;17.98;;;;;;;6.97;94.89;101968.33;1715147;82;26430;-72
2021/12/16 00:45:06;;;;;;;36.77;18.65;;;;;;;6.98;94.90;101968.77;1691478;83;98876;-72
2021/12/16 00:50:20;;;;;;;34.33;17.90;;;;;;;6.98;94.87;101972.31;1675622;85;27282;-73
2021/12/16 00:55:34;;;;;;;35.92;19.65;;;;;;;6.99;94.80;101975.86;1698975;83;26465;-72
2021/12/16 00:57:52;;;;;;;37.85;17.82;;;;;;;6.98;94.76;101974.09;1699585;82;98951;-72
2021/12/16 01:00:18;;;;;;;36.75;18.60;;;;;;;6.95;94.71;101972.34;1706632;83;25773;-72
2021/12/16 01:08:20;;;;;;;39.58;17.23;;;;;;;6.95;94.74;101977.67;1724266;81;25736;-72
2021/12/16 01:38:29;;;;;;;41.20;18.00;;;;;;;6.76;94.54;101986.23;1733111;81;25764;-71
2021/12/16 01:40:56;;;;;;;39.27;18.40;;;;;;;6.75;94.50;101991.12;1704149;81;98723;-70
2021/12/16 01:50:49;;;;;;;37.35;18.23;;;;;;;6.73;94.55;101990.25;1732686;81;98900;-72
2021/12/16 01:56:02;;;;;;;34.05;18.25;;;;;;;6.67;94.48;101985.41;1727586;81;27497;-73
2021/12/16 01:58:24;;;;;;;41.10;18.15;;;;;;;6.64;94.52;101982.76;1721783;81;98734;-73
2021/12/16 02:01:08;;;;;;;36.68;17.90;;;;;;;6.62;94.52;101981.88;1736000;81;25819;-70
2021/12/16 02:03:40;;;;;;;37.73;18.62;;;;;;;6.62;94.55;101976.11;1734352;81;98747;-70
2021/12/16 02:06:09;;;;;;;39.03;19.50;;;;;;;6.59;94.47;101974.80;1734526;80;25819;-71
2021/12/16 02:08:32;;;;;;;37.38;18.67;;;;;;;6.59;94.54;101979.23;1724956;81;98930;-71
2021/12/16 02:27:18;;;;;;;34.40;18.23;;;;;;;6.62;94.59;101974.77;1703716;81;25724;-71
2021/12/16 02:28:15;;;;;;;39.95;18.37;;;;;;;6.66;94.58;101972.98;1733258;81;98995;-71
2021/12/16 02:30:15;;;;;;;37.40;17.85;;;;;;;6.66;94.57;101971.20;1694763;82;25804;-73
2021/12/16 02:35:26;;;;;;;37.33;18.15;;;;;;;6.67;94.59;101967.64;1645086;85;98939;-73
2021/12/16 02:37:45;;;;;;;37.08;18.07;;;;;;;6.68;94.58;101972.08;1647233;85;26474;-72
2021/12/16 02:40:08;;;;;;;33.05;17.42;;;;;;;6.69;94.59;101970.30;1669371;82;98705;-70
2021/12/16 02:42:52;;;;;;;43.17;19.87;;;;;;;6.68;94.54;101968.52;1734407;81;26009;-72
2021/12/16 02:50:40;;;;;;;40.48;19.12;;;;;;;6.69;94.57;101963.63;1645241;85;26173;-71
2021/12/16 02:53:06;;;;;;;37.70;18.48;;;;;;;6.69;94.56;101962.30;1685844;81;98580;-71
2021/12/16 02:55:32;;;;;;;37.10;17.37;;;;;;;6.68;94.54;101964.08;1735588;81;25805;-72
2021/12/16 02:58:03;;;;;;;42.95;18.62;;;;;;;6.69;94.53;101969.84;1735707;81;98637;-71
2021/12/16 03:00:31;;;;;;;41.60;19.37;;;;;;;6.67;94.49;101974.30;1710123;82;28472;-71
2021/12/16 03:02:57;;;;;;;37.65;18.05;;;;;;;6.66;94.52;101965.87;1731755;81;98954;-71
2021/12/16 03:05:23;;;;;;;31.65;16.23;;;;;;;6.68;94.53;101970.73;1711342;82;26115;-71
2021/12/16 03:07:52;;;;;;;37.23;18.62;;;;;;;6.69;94.52;101969.84;1740471;80;26321;-72
2021/12/16 03:13:04;;;;;;;37.05;18.60;;;;;;;6.67;94.48;101966.30;1738976;80;27488;-71
2021/12/16 03:19:17;;;;;;;35.83;18.20;;;;;;;6.65;94.45;101962.77;1738952;80;25838;-71
2021/12/16 03:20:57;;;;;;;41.68;19.12;;;;;;;6.66;94.47;101971.64;1702860;80;98785;-71
2021/12/16 03:26:44;;;;;;;41.08;19.15;;;;;;;6.62;94.42;101972.11;1684378;82;28630;-71
2021/12/16 03:31:54;;;;;;;44.33;19.48;;;;;;;6.59;94.44;101959.25;1645801;85;25918;-71
2021/12/16 03:34:26;;;;;;;40.08;19.73;;;;;;;6.56;94.42;101952.17;1648528;85;98788;-71
2021/12/16 03:37:18;;;;;;;43.48;19.25;;;;;;;6.56;94.48;101960.16;1673123;82;26412;-72
2021/12/16 03:39:55;;;;;;;43.08;20.70;;;;;;;6.58;94.51;101963.70;1697390;82;98697;-72
2021/12/16 03:42:30;;;;;;;45.38;21.30;;;;;;;6.60;94.52;101966.36;1706681;82;25805;-71
2021/12/16 03:45:05;;;;;;;59.90;21.33;;;;;;;6.59;94.52;101970.80;1693679;83;98766;-71
2021/12/16 03:47:47;;;;;;;48.83;20.25;;;;;;;6.58;94.45;101956.16;1671659;84;25961;-72
2021/12/16 03:50:18;;;;;;;46.58;20.43;;;;;;;6.58;94.51;101957.48;1708819;82;25728;-72
2021/12/16 03:52:45;;;;;;;;;;;;;;;6.56;94.47;101957.94;1707387;82;98711;-73
2021/12/16 03:55:11;;;;;;;45.58;18.98;;;;;;;6.54;94.52;101955.28;1707940;82;25820;-73
2021/12/16 03:57:38;;;;;;;46.90;21.68;;;;;;;6.50;94.56;101957.08;1709875;82;98661;-72
2021/12/16 04:00:13;;;;;;;45.90;20.72;;;;;;;6.52;94.65;101962.40;1706120;82;25828;-72
2021/12/16 04:02:39;;;;;;;40.75;19.45;;;;;;;6.53;94.68;101951.30;1707057;82;25713;-73
2021/12/16 04:05:09;;;;;;;48.23;20.08;;;;;;;6.55;94.71;101954.39;1703615;82;98504;-71
2021/12/16 04:07:38;;;;;;;41.33;19.20;;;;;;;6.56;94.74;101957.94;1701908;83;25765;-71
2021/12/16 04:10:09;;;;;;;49.77;20.60;;;;;;;6.55;94.75;101958.84;1707077;82;98804;-71
2021/12/16 04:12:36;;;;;;;34.78;17.05;;;;;;;6.56;94.83;101957.94;1707324;82;26725;-71
2021/12/16 04:15:06;;;;;;;43.30;18.48;;;;;;;6.57;94.84;101965.04;1707456;82;98826;-71
2021/12/16 04:17:34;;;;;;;40.75;17.92;;;;;;;6.58;94.89;101965.03;1704754;82;27476;-73
2021/12/16 04:20:04;;;;;;;42.10;18.95;;;;;;;6.58;94.89;101960.15;1704344;82;26573;-70
2021/12/16 04:22:38;;;;;;;37.80;17.53;;;;;;;6.57;94.93;101959.27;1679091;84;98721;-71
2021/12/16 04:25:08;;;;;;;37.03;17.67;;;;;;;6.58;94.95;101962.81;1693208;82;26829;-70
2021/12/16 04:27:36;;;;;;;41.50;19.45;;;;;;;6.57;94.99;101967.26;1677353;83;98817;-71
2021/12/16 04:30:05;;;;;;;33.20;16.67;;;;;;;6.58;95.00;101962.37;1677466;83;27595;-71
2021/12/16 04:32:32;;;;;;;43.52;20.30;;;;;;;6.58;95.03;101964.14;1681164;83;26561;-71
2021/12/16 04:35:00;;;;;;;48.15;19.45;;;;;;;6.57;95.10;101967.26;1674460;84;98632;-71
2021/12/16 04:37:25;;;;;;;42.35;18.27;;;;;;;6.58;95.15;101969.03;1668734;84;26348;-71
2021/12/16 04:39:52;;;;;;;40.28;18.32;;;;;;;6.58;95.12;101968.14;1673841;83;98748;-71
2021/12/16 04:42:22;;;;;;;36.83;18.25;;;;;;;6.57;95.20;101967.26;1682127;83;28166;-72
2021/12/16 04:44:47;;;;;;;35.75;16.37;;;;;;;6.59;95.27;101958.81;1685349;83;102014;-72
2021/12/16 04:47:14;;;;;;;41.48;17.32;;;;;;;6.60;95.29;101957.91;1685609;83;26449;-70
2021/12/16 04:49:41;;;;;;;37.05;16.60;;;;;;;6.61;95.34;101966.79;1682879;83;26114;-71
2021/12/16 04:52:15;;;;;;;36.75;15.50;;;;;;;6.63;95.39;101965.89;1675601;84;98753;-71
2021/12/16 04:54:42;;;;;;;33.18;15.68;;;;;;;6.66;95.47;101969.86;1655249;85;28176;-71
2021/12/16 04:57:11;;;;;;;35.08;16.40;;;;;;;6.68;95.50;101968.08;1673306;84;99538;-72
2021/12/16 04:59:38;;;;;;;32.93;15.90;;;;;;;6.69;95.52;101970.30;1677634;84;25744;-72
2021/12/16 05:02:09;;;;;;;33.92;16.17;;;;;;;6.69;95.54;101961.85;1685701;83;26382;-71
2021/12/16 05:04:36;;;;;;;33.65;16.65;;;;;;;6.72;95.55;101967.16;1682221;83;98788;-72
2021/12/16 05:07:04;;;;;;;30.43;15.00;;;;;;;6.74;95.61;101969.37;1688215;83;27395;-72
2021/12/16 05:12:17;;;;;;;29.07;14.80;;;;;;;6.76;95.67;101966.25;1674775;83;25758;-72
2021/12/16 05:14:45;;;;;;;30.45;15.55;;;;;;;6.77;95.63;101975.13;1657644;84;25840;-71
2021/12/16 05:17:24;;;;;;;32.58;15.78;;;;;;;6.76;95.67;101966.25;1674878;84;98444;-71
2021/12/16 05:19:45;;;;;;;28.98;14.87;;;;;;;6.79;95.75;101970.67;1676634;84;27346;-71
2021/12/16 05:24:53;;;;;;;30.85;16.62;;;;;;;6.81;95.79;101963.11;1676993;84;25794;-72
2021/12/16 05:27:19;;;;;;;34.00;16.57;;;;;;;6.82;95.82;101971.54;1695899;83;98881;-72
2021/12/16 05:29:45;;;;;;;27.05;14.28;;;;;;;6.80;95.81;101971.11;1703800;82;25879;-72
2021/12/16 05:32:11;;;;;;;30.25;16.32;;;;;;;6.82;95.86;101971.98;1693353;83;28546;-71
2021/12/16 05:34:37;;;;;;;31.65;15.65;;;;;;;6.82;95.89;101972.87;1698623;81;98791;-72
2021/12/16 05:37:05;;;;;;;33.75;15.98;;;;;;;6.83;95.92;101975.97;1703787;82;25964;-72
2021/12/16 05:39:31;;;;;;;31.50;15.08;;;;;;;6.85;95.96;101986.63;1689334;83;99346;-73
2021/12/16 05:41:57;;;;;;;29.23;15.25;;;;;;;6.87;96.00;101979.95;1698293;83;25733;-72
2021/12/16 05:44:22;;;;;;;29.55;14.98;;;;;;;6.87;95.99;101982.61;1691761;83;28300;-72
2021/12/16 05:46:49;;;;;;;32.15;16.23;;;;;;;6.87;96.00;101980.84;1691477;83;98693;-72
2021/12/16 05:49:17;;;;;;;30.90;15.13;;;;;;;6.89;96.07;101983.48;1697078;82;25835;-73
2021/12/16 05:51:51;;;;;;;30.65;15.25;;;;;;;6.91;96.07;101984.36;1699260;82;99234;-72
2021/12/16 05:54:20;;;;;;;37.70;17.27;;;;;;;6.93;96.09;101970.58;1689595;83;25738;-72
2021/12/16 05:56:47;;;;;;;32.10;15.78;;;;;;;6.94;96.08;101973.23;1696067;83;27392;-72
2021/12/16 05:59:17;;;;;;;31.73;15.58;;;;;;;6.96;96.09;101966.56;1702872;81;98443;-73
2021/12/16 06:01:46;;;;;;;30.70;16.12;;;;;;;6.97;96.06;101967.00;1691516;83;25852;-72
2021/12/16 06:04:14;;;;;;;33.63;15.60;;;;;;;6.96;96.02;101967.44;1695728;83;98607;-73
2021/12/16 06:06:40;;;;;;;29.12;15.00;;;;;;;6.96;96.07;101979.44;1693361;83;26613;-73
2021/12/16 06:09:08;;;;;;;33.55;16.17;;;;;;;6.95;96.09;101976.78;1697690;83;98836;-73
2021/12/16 06:11:40;;;;;;;28.25;15.50;;;;;;;6.94;96.09;101982.56;1706298;81;25855;-73
2021/12/16 06:27:40;;;;;;;29.37;15.10;;;;;;;6.98;96.20;101979.42;1699511;82;98902;-73
2021/12/16 06:30:14;;;;;;;24.50;12.40;;;;;;;6.99;96.26;101984.75;1700254;82;26431;-73
2021/12/16 06:32:42;;;;;;;27.13;14.70;;;;;;;7.02;96.23;101997.17;1703731;82;25844;-71
2021/12/16 06:35:10;;;;;;;33.08;15.63;;;;;;;7.02;96.22;101997.17;1699829;82;98647;-71
2021/12/16 06:37:37;;;;;;;29.48;13.25;;;;;;;7.05;96.26;102001.14;1703508;82;25907;-72
2021/12/16 06:40:06;;;;;;;30.10;14.45;;;;;;;7.05;96.27;102003.36;1703641;82;98690;-72
2021/12/16 06:42:35;;;;;;;30.30;14.83;;;;;;;7.05;96.26;102008.70;1699411;82;25876;-71
2021/12/16 06:45:06;;;;;;;30.57;14.70;;;;;;;7.07;96.23;102003.35;1702794;82;98867;-71
2021/12/16 06:47:37;;;;;;;28.80;14.20;;;;;;;7.05;96.27;101999.36;1705783;82;27849;-70
2021/12/16 06:49:56;;;;;;;28.90;14.20;;;;;;;7.06;96.26;101999.80;1700801;82;25920;-72
2021/12/16 06:52:31;;;;;;;28.25;14.65;;;;;;;7.07;96.27;101996.23;1700735;82;98696;-72
2021/12/16 06:57:35;;;;;;;29.20;14.20;;;;;;;7.07;96.27;101996.69;1702307;82;98841;-72
2021/12/16 06:59:56;;;;;;;32.28;15.35;;;;;;;7.05;96.25;102003.36;1697770;82;28024;-73
2021/12/16 07:02:41;;;;;;;32.48;15.50;;;;;;;7.05;96.28;102019.36;1702854;82;26206;-74
2021/12/16 07:04:47;;;;;;;28.67;12.85;;;;;;;7.05;96.30;102014.03;1700793;82;98654;-71
2021/12/16 07:07:14;;;;;;;32.90;15.90;;;;;;;7.05;96.29;102014.47;1694814;83;25781;-74
2021/12/16 07:09:41;;;;;;;34.33;16.48;;;;;;;7.04;96.33;102024.25;1703449;81;98611;-73
2021/12/16 07:12:10;;;;;;;29.85;15.03;;;;;;;7.04;96.35;102020.70;1707315;82;28058;-71
2021/12/16 07:14:39;;;;;;;30.55;14.93;;;;;;;7.03;96.33;102021.15;1707027;82;25963;-70
2021/12/16 07:17:11;;;;;;;34.27;16.73;;;;;;;7.03;96.35;102025.15;1701651;82;98639;-72
2021/12/16 07:19:39;;;;;;;34.80;15.60;;;;;;;7.03;96.42;102032.27;1705289;82;26486;-71
2021/12/16 07:22:07;;;;;;;31.05;15.30;;;;;;;7.02;96.42;102028.70;1701559;82;98712;-71
2021/12/16 07:24:34;;;;;;;28.80;14.83;;;;;;;7.00;96.43;102023.84;1708219;82;27462;-72
2021/12/16 07:27:00;;;;;;;39.05;18.75;;;;;;;7.00;96.46;102025.17;1682503;82;98914;-71
2021/12/16 07:29:27;;;;;;;37.67;17.30;;;;;;;7.02;96.49;102018.49;1674716;83;25855;-69
2021/12/16 07:31:55;;;;;;;39.23;17.32;;;;;;;7.02;96.51;102017.16;1677144;83;25706;-70
2021/12/16 07:34:22;;;;;;;37.03;16.40;;;;;;;7.03;96.52;102021.59;1671257;83;98617;-71
2021/12/16 07:36:48;;;;;;;36.23;18.15;;;;;;;7.02;96.55;102022.49;1680317;83;27376;-78
2021/12/16 07:39:18;;;;;;;35.68;17.27;;;;;;;7.03;96.56;102037.15;1675489;83;98790;-72
2021/12/16 07:41:47;;;;;;;37.00;16.10;;;;;;;7.04;96.61;102044.70;1676657;83;25900;-69
2021/12/16 07:44:16;;;;;;;38.25;17.60;;;;;;;7.05;96.64;102046.47;1678085;83;26739;-69
2021/12/16 07:46:56;;;;;;;37.67;17.95;;;;;;;7.05;96.69;102052.69;1675779;84;98618;-70
2021/12/16 07:49:30;;;;;;;43.45;18.02;;;;;;;7.07;96.70;102060.67;1663652;84;28181;-68
2021/12/16 07:51:58;;;;;;;41.53;18.32;;;;;;;7.07;96.72;102071.34;1663825;85;98666;-70
2021/12/16 07:54:24;;;;;;;40.73;17.95;;;;;;;7.09;96.79;102065.55;1663544;85;25942;-69
2021/12/16 07:56:55;;;;;;;34.10;16.60;;;;;;;7.11;96.82;102071.76;1667104;84;26451;-70
2021/12/16 07:59:24;;;;;;;41.60;17.73;;;;;;;7.11;96.80;102073.97;1691415;81;98821;-69
2021/12/16 08:01:50;;;;;;;36.53;16.20;;;;;;;7.10;96.77;102069.53;1674401;83;27386;-70
2021/12/16 08:04:21;;;;;;;40.55;19.00;;;;;;;7.11;96.83;102072.64;1675660;84;99023;-70
2021/12/16 08:06:51;;;;;;;36.37;16.80;;;;;;;7.13;96.85;102069.52;1673814;84;25833;-70
2021/12/16 08:09:19;;;;;;;34.08;15.68;;;;;;;7.13;96.85;102076.19;1674300;83;98781;-70
2021/12/16 08:11:47;;;;;;;34.78;16.95;;;;;;;7.13;96.83;102073.97;1676870;83;25842;-71
2021/12/16 08:14:15;;;;;;;37.13;16.17;;;;;;;7.12;96.84;102069.53;1674591;84;28093;-70
2021/12/16 08:16:41;;;;;;;35.65;17.85;;;;;;;7.13;96.85;102076.19;1678072;83;99092;-69
2021/12/16 08:19:07;;;;;;;37.03;16.62;;;;;;;7.15;96.88;102078.84;1677138;83;25928;-69
2021/12/16 08:21:36;;;;;;;39.03;16.73;;;;;;;7.16;96.89;102085.50;1674662;83;98546;-70
2021/12/16 08:24:07;;;;;;;39.70;16.70;;;;;;;7.16;96.91;102092.61;1675271;83;26596;-70
2021/12/16 08:26:35;;;;;;;33.93;16.10;;;;;;;7.17;96.88;102099.72;1673099;83;27619;-70
2021/12/16 08:29:04;;;;;;;34.15;15.25;;;;;;;7.17;96.88;102099.72;1671990;83;98724;-70
2021/12/16 08:31:30;;;;;;;33.65;16.85;;;;;;;7.20;96.93;102100.14;1674305;83;25785;-71
2021/12/16 08:33:57;;;;;;;37.63;17.42;;;;;;;7.22;96.96;102104.58;1679542;83;98817;-69
2021/12/16 08:36:23;;;;;;;34.98;17.05;;;;;;;7.23;96.93;102091.67;1670544;83;25755;-69
2021/12/16 08:38:49;;;;;;;38.53;16.27;;;;;;;7.26;96.93;102099.66;1687734;83;27392;-71
2021/12/16 08:41:32;;;;;;;33.55;14.95;;;;;;;7.28;96.94;102103.65;1687827;83;98592;-70
2021/12/16 08:44:01;;;;;;;33.40;13.72;;;;;;;7.29;96.93;102101.42;1689158;83;26385;-72
2021/12/16 08:46:31;;;;;;;29.18;14.53;;;;;;;7.30;96.92;102092.08;1666740;84;98993;-69
2021/12/16 08:48:59;;;;;;;29.05;13.10;;;;;;;7.31;96.92;102100.52;1676312;84;25832;-69
2021/12/16 08:51:30;;;;;;;24.18;13.00;;;;;;;7.32;96.91;102104.06;1675393;84;98843;-70
2021/12/16 08:53:56;;;;;;;27.17;13.22;;;;;;;7.35;96.88;102104.05;1679694;84;25854;-69
2021/12/16 08:56:22;;;;;;;27.98;12.88;;;;;;;7.35;96.85;102112.94;1674390;84;26149;-69
2021/12/16 08:58:49;;;;;;;24.55;12.45;;;;;;;7.37;96.84;102116.92;1673985;83;99080;-69
2021/12/16 09:01:23;;;;;;;25.27;12.18;;;;;;;7.39;96.81;102120.47;1672076;84;25815;-70
2021/12/16 09:03:51;;;;;;;28.42;12.40;;;;;;;7.41;96.82;102122.23;1672084;84;98759;-68
2021/12/16 09:06:18;;;;;;;24.27;12.53;;;;;;;7.44;96.76;102126.21;1676149;84;25881;-68
2021/12/16 09:08:43;;;;;;;22.62;11.80;;;;;;;7.44;96.72;102128.87;1672639;84;25746;-68
2021/12/16 09:11:14;;;;;;;23.12;12.40;;;;;;;7.46;96.65;102128.42;1673842;84;98747;-70
2021/12/16 09:13:41;;;;;;;27.95;12.55;;;;;;;7.41;96.60;102111.56;1677641;84;26367;-70
2021/12/16 09:16:15;;;;;;;22.35;12.13;;;;;;;7.41;96.51;102115.56;1669670;84;99509;-70
2021/12/16 09:18:42;;;;;;;24.27;11.20;;;;;;;7.46;96.44;102130.20;1678955;84;25861;-70
2021/12/16 09:21:14;;;;;;;27.32;13.03;;;;;;;7.45;96.43;102138.66;1674754;84;98949;-68
2021/12/16 09:23:43;;;;;;;26.00;11.57;;;;;;;7.47;96.41;102141.31;1677282;84;26272;-70
2021/12/16 09:26:10;;;;;;;23.35;11.78;;;;;;;7.47;96.38;102130.19;1684186;83;25818;-68
2021/12/16 09:28:37;;;;;;;26.02;11.97;;;;;;;7.42;96.27;102110.66;1696479;83;99120;-69
2021/12/16 09:31:10;;;;;;;22.15;11.40;;;;;;;7.47;96.26;102126.19;1701989;82;25892;-69
2021/12/16 09:33:35;;;;;;;21.55;11.00;;;;;;;7.49;96.23;102117.73;1696138;83;98926;-69
2021/12/16 09:36:02;;;;;;;22.82;10.43;;;;;;;7.44;96.20;102108.88;1698547;83;26894;-69
2021/12/16 09:38:29;;;;;;;22.85;11.03;;;;;;;7.52;96.17;102111.93;1694621;83;25909;-69
2021/12/16 09:40:57;;;;;;;19.02;9.53;;;;;;;7.52;96.11;102107.92;1694238;83;98645;-69
2021/12/16 09:43:28;;;;;;;19.87;9.90;;;;;;;7.52;96.02;102106.59;1667154;83;25876;-68
2021/12/16 09:45:59;;;;;;;15.13;8.73;;;;;;;7.56;96.07;102095.89;1702474;81;98489;-69
2021/12/16 09:48:25;;;;;;;18.92;9.55;;;;;;;7.59;96.02;102116.33;1701279;82;25815;-70
2021/12/16 09:50:54;;;;;;;19.17;9.60;;;;;;;7.61;95.93;102109.19;1700398;83;25767;-69
2021/12/16 09:53:20;;;;;;;17.98;9.23;;;;;;;7.59;95.85;102119.88;1689010;83;98734;-69
2021/12/16 09:55:57;;;;;;;18.67;9.45;;;;;;;7.62;95.84;102110.97;1691965;83;26153;-69
2021/12/16 09:58:17;;;;;;;22.75;10.08;;;;;;;7.59;95.75;102113.20;1692504;83;98861;-70
2021/12/16 10:00:44;;;;;;;22.48;10.03;;;;;;;7.63;95.75;102114.95;1699686;83;26158;-69
2021/12/16 10:03:10;;;;;;;21.85;9.05;;;;;;;7.65;95.76;102111.83;1697048;83;98832;-69
2021/12/16 10:05:36;;;;;;;15.65;8.98;;;;;;;7.66;95.67;102102.92;1704044;82;27387;-71
2021/12/16 10:08:05;;;;;;;19.67;9.43;;;;;;;7.67;95.64;102106.03;1699769;83;25746;-69
2021/12/16 10:10:32;;;;;;;18.23;8.90;;;;;;;7.70;95.66;102116.68;1695182;83;98575;-70
2021/12/16 10:13:01;;;;;;;14.10;7.67;;;;;;;7.70;95.51;102126.47;1696383;82;26192;-70
2021/12/16 10:18:07;;;;;;;17.45;8.63;;;;;;;7.70;95.45;102118.46;1695819;82;27488;-71
2021/12/16 10:20:55;;;;;;;15.03;7.85;;;;;;;7.70;95.44;102118.46;1699950;82;25924;-71
2021/12/16 10:23:41;;;;;;;15.50;8.18;;;;;;;7.70;95.38;102126.47;1694219;82;98404;-70
2021/12/16 10:26:15;;;;;;;13.80;7.47;;;;;;;7.70;95.35;102150.48;1691197;82;25746;-71
2021/12/16 10:28:46;;;;;;;17.00;8.68;;;;;;;7.70;95.31;102130.47;1693695;82;99083;-69
2021/12/16 10:31:29;;;;;;;14.30;8.10;;;;;;;7.71;95.25;102140.25;1696374;82;30406;-69
2021/12/16 10:34:02;;;;;;;14.33;7.17;;;;;;;7.70;95.25;102130.02;1697963;82;98488;-69
2021/12/16 10:36:33;;;;;;;13.78;6.62;;;;;;;7.67;95.08;102129.16;1705153;81;25928;-69
2021/12/16 10:39:11;;;;;;;11.45;6.25;;;;;;;7.66;95.03;102144.73;1705054;82;98798;-70
2021/12/16 10:41:47;;;;;;;12.93;7.15;;;;;;;7.66;94.93;102121.60;1705403;81;25828;-69
2021/12/16 10:44:20;;;;;;;12.55;7.50;;;;;;;7.64;94.81;102133.19;1698145;83;28322;-72
2021/12/16 10:46:59;;;;;;;17.27;8.13;;;;;;;7.62;94.65;102128.31;1695944;83;97729;-72
2021/12/16 10:49:26;;;;;;;15.08;6.65;;;;;;;7.59;94.65;102131.00;1697220;82;25846;-73
2021/12/16 10:51:57;;;;;;;16.45;8.45;;;;;;;7.61;94.71;102135.43;1699441;82;98591;-70
2021/12/16 10:54:41;;;;;;;15.30;7.70;;;;;;;7.63;94.67;102119.41;1681564;83;25838;-71
2021/12/16 10:57:14;;;;;;;13.72;7.17;;;;;;;7.61;94.55;102125.20;1691595;84;99060;-69
2021/12/16 10:59:51;;;;;;;12.98;7.60;;;;;;;7.60;94.54;102112.31;1704770;81;26139;-71
2021/12/16 11:02:30;;;;;;;13.75;7.42;;;;;;;7.64;94.55;102105.16;1700097;82;25996;-72
2021/12/16 11:05:04;;;;;;;14.00;7.15;;;;;;;7.64;94.49;102102.05;1695035;82;98580;-69
2021/12/16 11:07:38;;;;;;;12.03;7.22;;;;;;;7.67;94.47;102107.81;1701602;82;26107;-70
2021/12/16 11:10:25;;;;;;;12.60;6.87;;;;;;;7.68;94.43;102105.13;1699248;82;98537;-70
2021/12/16 11:12:56;;;;;;;13.78;6.75;;;;;;;7.70;94.38;102101.11;1702001;82;25935;-71
2021/12/16 11:15:39;;;;;;;11.28;6.42;;;;;;;7.70;94.28;102106.45;1699691;82;98740;-71
2021/12/16 11:18:13;;;;;;;10.70;5.75;;;;;;;7.70;94.23;102109.13;1693006;83;25678;-70
2021/12/16 11:21:09;;;;;;;10.30;5.62;;;;;;;7.72;94.18;102105.98;1697363;83;25830;-70
2021/12/16 11:23:40;;;;;;;9.65;5.87;;;;;;;7.73;94.11;102103.31;1690372;83;98371;-72
2021/12/16 11:26:21;;;;;;;12.03;6.25;;;;;;;7.74;94.07;102090.40;1702581;82;25796;-71
2021/12/16 11:28:53;;;;;;;10.97;6.03;;;;;;;7.82;93.99;102099.64;1689355;83;98599;-69
2021/12/16 11:31:32;;;;;;;8.05;5.15;;;;;;;7.87;93.87;102102.27;1688160;83;25840;-72
2021/12/16 11:34:06;;;;;;;10.10;4.70;;;;;;;7.88;93.79;102098.70;1690902;83;98623;-70
2021/12/16 11:36:38;;;;;;;12.63;5.90;;;;;;;7.90;93.69;102107.58;1659961;84;27473;-71
2021/12/16 11:39:12;;;;;;;9.75;4.83;;;;;;;7.90;93.60;102103.58;1696162;81;25855;-71
2021/12/16 11:41:51;;;;;;;8.25;4.65;;;;;;;7.90;93.46;102113.80;1689978;83;98208;-72
2021/12/16 11:44:32;;;;;;;7.62;4.80;;;;;;;7.91;93.45;102103.56;1689908;83;25843;-70
2021/12/16 11:47:19;;;;;;;15.25;5.42;;;;;;;7.95;93.39;102114.66;1691618;81;98599;-71
2021/12/16 11:49:51;;;;;;;11.15;4.55;;;;;;;7.94;93.23;102118.22;1692869;81;26864;-73
2021/12/16 11:52:23;;;;;;;;;;;;;;;7.95;93.17;102122.66;1687127;83;97661;-72
2021/12/16 11:55:11;;;;;;;10.68;3.98;;;;;;;7.95;93.12;102130.67;1677939;83;26402;-72
2021/12/16 11:58:00;;;;;;;6.25;3.40;;;;;;;7.94;93.02;102131.56;1683406;83;98965;-71
2021/12/16 12:00:26;;;;;;;6.30;3.05;;;;;;;7.93;92.85;102130.25;1680123;83;25747;-73
2021/12/16 12:03:07;;;;;;;7.25;4.00;;;;;;;7.91;92.67;102141.39;1679182;83;32338;-71
2021/12/16 12:05:45;;;;;;;6.60;3.50;;;;;;;7.89;92.27;102115.16;1678595;83;98509;-72
2021/12/16 12:08:26;;;;;;;6.90;3.70;;;;;;;7.93;92.31;102119.12;1679996;84;25887;-70
2021/12/16 12:11:20;;;;;;;6.30;3.87;;;;;;;7.99;92.38;102116.39;1689481;83;98647;-71
2021/12/16 12:13:56;;;;;;;7.67;3.55;;;;;;;8.01;92.20;102125.27;1690471;83;25824;-71
2021/12/16 12:16:41;;;;;;;8.05;3.17;;;;;;;7.97;91.76;102126.20;1678662;82;98649;-70
2021/12/16 12:19:23;;;;;;;8.48;3.62;;;;;;;7.90;91.47;102123.15;1678434;83;25858;-70
2021/12/16 12:21:56;;;;;;;7.80;4.10;;;;;;;7.86;91.24;102115.18;1676538;84;98749;-70
2021/12/16 12:24:38;;;;;;;5.33;3.35;;;;;;;7.85;91.06;102106.73;1674545;84;26873;-70
2021/12/16 12:27:15;;;;;;;5.25;3.55;;;;;;;7.83;90.84;102107.64;1682121;83;26292;-70
2021/12/16 12:29:50;;;;;;;6.62;3.47;;;;;;;7.81;90.75;102106.77;1679987;83;98175;-70
2021/12/16 12:32:24;;;;;;;7.75;3.67;;;;;;;7.79;90.66;102129.95;1680988;83;26527;-69
2021/12/16 12:34:59;;;;;;;7.70;3.62;;;;;;;7.78;90.55;102133.97;1680665;83;98387;-69
2021/12/16 12:37:29;;;;;;;6.28;3.58;;;;;;;7.75;90.44;102128.66;1671145;84;25800;-69
2021/12/16 12:39:59;;;;;;;6.13;3.13;;;;;;;7.72;90.13;102136.23;1674390;84;98555;-69
2021/12/16 12:42:26;;;;;;;6.55;3.52;;;;;;;7.68;89.91;102122.48;1675908;84;27579;-69
2021/12/16 12:44:52;;;;;;;5.67;3.25;;;;;;;7.62;89.78;102103.84;1688610;81;25756;-69
2021/12/16 12:47:25;;;;;;;7.97;3.10;;;;;;;7.58;89.59;102106.55;1684497;83;98375;-69
2021/12/16 12:49:53;;;;;;;6.00;2.80;;;;;;;7.56;89.46;102109.67;1688440;83;25814;-70
2021/12/16 12:52:23;;;;;;;7.08;3.47;;;;;;;7.55;89.42;102102.57;1687477;83;98378;-70
2021/12/16 12:55:09;;;;;;;6.12;2.77;;;;;;;7.55;89.34;102104.79;1684309;82;28041;-69
2021/12/16 12:57:39;;;;;;;6.90;2.85;;;;;;;7.56;89.10;102096.34;1663067;84;97737;-69
2021/12/16 13:00:25;;;;;;;11.65;4.90;;;;;;;7.54;88.85;102103.47;1662436;84;26358;-69
2021/12/16 13:03:17;;;;;;;8.98;3.25;;;;;;;7.53;88.68;102101.70;1691309;83;25831;-69
2021/12/16 13:05:53;;;;;;;10.80;3.10;;;;;;;7.53;88.77;102097.69;1654694;84;98580;-69
2021/12/16 13:08:33;;;;;;;7.85;3.52;;;;;;;7.53;88.57;102109.25;1684465;83;27525;-69
2021/12/16 13:11:04;;;;;;;12.63;3.33;;;;;;;7.54;88.33;102116.81;1666046;84;98638;-69
2021/12/16 13:13:35;;;;;;;13.88;3.62;;;;;;;7.56;88.24;102121.69;1690989;83;25855;-70
2021/12/16 13:27:35;;;;;;;14.30;3.92;;;;;;;7.45;87.62;102109.30;1685555;82;98458;-73
2021/12/16 13:32:46;;;;;;;10.75;3.60;;;;;;;7.38;87.38;102106.24;1691194;83;25716;-73
2021/12/16 13:37:53;;;;;;;18.40;3.87;;;;;;;7.37;87.23;102105.81;1679820;83;26015;-72
2021/12/16 13:40:33;;;;;;;10.20;3.60;;;;;;;7.36;86.88;102121.37;1689292;83;98433;-73
2021/12/16 13:43:12;;;;;;;12.50;3.70;;;;;;;7.36;86.80;102113.81;1691245;83;25856;-73
2021/12/16 13:45:53;;;;;;;14.90;4.20;;;;;;;7.35;86.69;102124.94;1687213;83;98742;-74
2021/12/16 13:48:58;;;;;;;13.58;4.50;;;;;;;7.35;86.78;102134.27;1688425;83;27439;-74
2021/12/16 14:04:13;;;;;;;10.85;6.00;;;;;;;7.25;86.68;102162.34;1690631;83;27582;-73
2021/12/16 14:06:56;;;;;;;18.57;7.22;;;;;;;7.20;86.72;102166.36;1683840;81;99062;-71
2021/12/16 14:09:25;;;;;;;16.42;6.28;;;;;;;7.13;86.72;102184.17;1675106;84;25728;-71
2021/12/16 14:14:46;;;;;;;16.05;7.33;;;;;;;7.08;86.91;102193.97;1688427;83;25795;-72
2021/12/16 14:18:04;;;;;;;18.05;6.83;;;;;;;7.08;86.99;102187.31;1688953;83;98471;-73
2021/12/16 14:24:17;;;;;;;18.00;7.50;;;;;;;7.01;87.05;102205.55;1687401;83;98665;-74
2021/12/16 14:26:08;;;;;;;19.82;8.98;;;;;;;6.99;87.15;102209.12;1661412;81;26582;-75